Time;durP1;ratioP1;P1;durP2;ratioP2;P2;SDS_P1;SDS_P2;PMS_P1;PMS_P2;Temp;Humidity;BMP_temperature;BMP_pressure;BME280_temperature;BME280_humidity;BME280_pressure;Samples;Min_cycle;Max_cycle;Signal;HPM_P1;HPM_P2
2021/01/11 00:00:22;;;;;;;51.40;24.38;;;2.50;99.90;;;;;;5093491;28;20040;-74
2021/01/11 00:02:48;;;;;;;65.97;26.90;;;2.60;99.90;;;;;;5093633;28;20523;-74
2021/01/11 00:05:14;;;;;;;58.22;27.73;;;2.60;99.90;;;;;;5093823;28;20024;-74
2021/01/11 00:07:42;;;;;;;63.53;27.40;;;2.60;99.90;;;;;;5094086;28;20048;-74
2021/01/11 00:10:08;;;;;;;54.88;26.10;;;2.60;99.90;;;;;;5094012;28;20031;-74
2021/01/11 00:12:43;;;;;;;58.65;27.05;;;2.50;99.90;;;;;;5094065;28;20031;-74
2021/01/11 00:15:11;;;;;;;62.85;26.58;;;2.60;99.90;;;;;;5092236;28;20028;-74
2021/01/11 00:17:37;;;;;;;61.10;28.30;;;2.60;99.90;;;;;;5094067;28;20119;-74
2021/01/11 00:20:06;;;;;;;56.65;26.35;;;2.50;99.90;;;;;;5092765;28;20099;-74
2021/01/11 00:22:33;;;;;;;53.15;26.73;;;2.50;99.90;;;;;;5093978;28;20027;-73
2021/01/11 00:24:58;;;;;;;59.97;28.27;;;2.50;99.90;;;;;;5093399;28;20115;-73
2021/01/11 00:27:24;;;;;;;58.53;26.65;;;2.40;99.90;;;;;;5093341;28;20107;-74
2021/01/11 00:29:49;;;;;;;57.78;27.20;;;2.50;99.90;;;;;;5093280;28;20056;-73
2021/01/11 00:32:15;;;;;;;60.22;27.00;;;2.40;99.90;;;;;;5092368;28;20107;-74
2021/01/11 00:34:40;;;;;;;64.38;26.67;;;2.50;99.90;;;;;;5093823;28;20028;-74
2021/01/11 00:37:06;;;;;;;57.50;25.27;;;2.50;99.90;;;;;;5093814;28;20438;-74
2021/01/11 00:39:31;;;;;;;55.03;26.42;;;2.50;99.90;;;;;;5093743;28;20461;-74
2021/01/11 00:41:59;;;;;;;57.33;26.20;;;2.50;99.90;;;;;;5095155;28;20032;-74
2021/01/11 00:44:25;;;;;;;47.97;23.52;;;2.50;99.90;;;;;;5097678;28;20016;-73
2021/01/11 00:46:51;;;;;;;54.05;22.73;;;2.60;99.90;;;;;;5097447;28;20419;-74
2021/01/11 00:49:17;;;;;;;49.05;24.67;;;2.60;99.90;;;;;;5097597;28;20041;-74
2021/01/11 00:51:43;;;;;;;47.05;23.25;;;2.60;99.90;;;;;;5097553;28;20024;-73
2021/01/11 00:54:09;;;;;;;54.28;25.45;;;2.60;99.90;;;;;;5096948;28;20024;-74
2021/01/11 00:56:35;;;;;;;51.30;24.67;;;2.50;99.90;;;;;;5095666;28;20439;-74
2021/01/11 00:59:00;;;;;;;61.83;26.60;;;2.60;99.90;;;;;;5095984;28;20044;-73
2021/01/11 01:01:26;;;;;;;49.40;24.77;;;2.60;99.90;;;;;;5097354;28;20024;-73
2021/01/11 01:03:51;;;;;;;49.45;25.10;;;2.50;99.90;;;;;;5096966;28;20028;-73
2021/01/11 01:06:18;;;;;;;51.33;25.13;;;2.60;99.90;;;;;;5097266;28;20032;-73
2021/01/11 01:08:43;;;;;;;58.70;26.08;;;2.60;99.90;;;;;;5096696;28;20389;-74
2021/01/11 01:11:10;;;;;;;50.50;25.83;;;2.50;99.90;;;;;;5097199;28;20020;-74
2021/01/11 01:13:36;;;;;;;54.72;25.40;;;2.60;99.90;;;;;;5095997;28;20024;-74
2021/01/11 01:16:03;;;;;;;50.55;26.00;;;2.60;99.90;;;;;;5097046;28;20032;-74
2021/01/11 01:18:28;;;;;;;49.70;24.80;;;2.60;99.90;;;;;;5097305;28;20024;-74
2021/01/11 01:20:54;;;;;;;56.10;25.88;;;2.60;99.90;;;;;;5095730;28;20453;-73
2021/01/11 01:23:19;;;;;;;55.50;26.83;;;2.50;99.90;;;;;;5096933;28;20024;-73
2021/01/11 01:25:45;;;;;;;54.33;26.27;;;2.50;99.90;;;;;;5096627;28;20028;-74
2021/01/11 01:28:10;;;;;;;59.05;26.60;;;2.60;99.90;;;;;;5096855;28;20028;-73
2021/01/11 01:30:36;;;;;;;52.33;26.63;;;2.60;99.90;;;;;;5096846;28;20026;-74
2021/01/11 01:33:01;;;;;;;52.78;25.35;;;2.60;99.90;;;;;;5095580;28;20024;-74
2021/01/11 01:35:29;;;;;;;50.53;26.50;;;2.60;99.90;;;;;;5096703;28;20078;-74
2021/01/11 01:37:55;;;;;;;55.33;26.20;;;2.60;99.90;;;;;;5096409;28;20024;-74
2021/01/11 01:40:20;;;;;;;47.53;25.85;;;2.60;99.90;;;;;;5095983;28;20032;-74
2021/01/11 01:42:46;;;;;;;53.15;24.75;;;2.60;99.90;;;;;;5078405;28;20028;-74
2021/01/11 01:45:12;;;;;;;51.10;26.23;;;2.60;99.90;;;;;;5096494;28;20016;-74
2021/01/11 01:47:38;;;;;;;58.33;27.48;;;2.60;99.90;;;;;;5095938;28;20020;-74
2021/01/11 01:50:06;;;;;;;49.97;25.35;;;2.60;99.90;;;;;;5095870;28;20036;-74
2021/01/11 01:52:33;;;;;;;50.30;23.92;;;2.60;99.90;;;;;;5094618;28;20066;-74
2021/01/11 01:54:59;;;;;;;58.30;26.63;;;2.60;99.90;;;;;;5096375;28;20024;-74
2021/01/11 01:57:24;;;;;;;58.10;25.38;;;2.60;99.90;;;;;;5096275;28;20476;-74
2021/01/11 01:59:51;;;;;;;56.83;27.13;;;2.60;99.90;;;;;;5095692;28;20056;-73
2021/01/11 02:02:19;;;;;;;51.53;25.98;;;2.60;99.90;;;;;;5095938;28;20023;-74
2021/01/11 02:04:45;;;;;;;54.80;26.42;;;2.60;99.90;;;;;;5095854;28;20480;-74
2021/01/11 02:07:37;;;;;;;53.28;25.75;;;2.60;99.90;;;;;;5096116;28;20032;-74
2021/01/11 02:10:16;;;;;;;52.25;26.33;;;2.60;99.90;;;;;;5096025;28;20024;-74
2021/01/11 02:13:13;;;;;;;49.67;26.83;;;2.60;99.90;;;;;;5095705;28;20389;-73
2021/01/11 02:15:51;;;;;;;58.53;27.92;;;2.60;99.90;;;;;;5095420;28;20021;-74
2021/01/11 02:18:27;;;;;;;51.53;27.33;;;2.60;99.90;;;;;;5096107;28;20115;-74
2021/01/11 02:21:32;;;;;;;57.88;29.17;;;2.60;99.90;;;;;;5095726;28;20073;-73
2021/01/11 02:24:26;;;;;;;55.47;28.85;;;2.50;99.90;;;;;;5095082;28;20030;-74
2021/01/11 02:27:39;;;;;;;64.28;30.02;;;2.60;99.90;;;;;;5095627;28;20461;-74
2021/01/11 02:32:49;;;;;;;58.42;28.70;;;2.50;99.90;;;;;;5112204;27;20448;-73
2021/01/11 02:35:17;;;;;;;61.90;29.52;;;2.50;99.90;;;;;;5110486;28;20381;-73
2021/01/11 02:37:43;;;;;;;60.72;29.42;;;2.50;99.90;;;;;;5110448;28;20043;-73
2021/01/11 02:40:10;;;;;;;63.22;29.42;;;2.50;99.90;;;;;;5111553;28;20461;-73
2021/01/11 02:42:36;;;;;;;63.60;28.10;;;2.50;99.90;;;;;;5111778;28;20016;-73
2021/01/11 02:45:05;;;;;;;52.67;26.80;;;2.50;99.90;;;;;;5111420;28;20027;-73
2021/01/11 02:47:56;;;;;;;56.60;27.23;;;2.50;99.90;;;;;;5109849;28;20082;-73
2021/01/11 02:50:25;;;;;;;55.88;27.10;;;2.50;99.90;;;;;;5110981;28;20028;-73
2021/01/11 02:53:26;;;;;;;61.80;27.42;;;2.50;99.90;;;;;;5111298;28;20023;-73
2021/01/11 02:56:10;;;;;;;54.72;27.05;;;2.40;99.90;;;;;;5110874;28;20053;-72
2021/01/11 02:59:04;;;;;;;57.70;27.13;;;2.40;99.90;;;;;;5111500;28;20047;-73
2021/01/11 03:01:37;;;;;;;59.90;27.75;;;2.50;99.90;;;;;;5111071;28;20036;-72
2021/01/11 03:04:04;;;;;;;62.92;31.02;;;2.40;99.90;;;;;;5111410;28;20020;-73
2021/01/11 03:06:31;;;;;;;68.97;32.03;;;2.40;99.90;;;;;;5111310;28;20343;-73
2021/01/11 03:09:04;;;;;;;73.10;33.53;;;2.40;99.90;;;;;;5111266;28;20449;-73
2021/01/11 03:11:32;;;;;;;65.93;32.60;;;2.40;99.90;;;;;;5109967;28;20034;-73
2021/01/11 03:13:58;;;;;;;64.20;31.75;;;2.50;99.90;;;;;;5111146;28;20043;-73
2021/01/11 03:16:23;;;;;;;80.13;36.28;;;2.40;99.90;;;;;;5111101;28;20550;-73
2021/01/11 03:18:49;;;;;;;78.80;36.67;;;2.40;99.90;;;;;;5110874;28;20095;-73
2021/01/11 03:21:14;;;;;;;74.57;36.40;;;2.40;99.90;;;;;;5109639;28;20028;-73
2021/01/11 03:23:40;;;;;;;75.68;34.60;;;2.40;99.90;;;;;;5110994;28;20066;-73
2021/01/11 03:26:05;;;;;;;83.45;38.30;;;2.40;99.90;;;;;;5110920;28;20036;-73
2021/01/11 03:28:31;;;;;;;77.50;36.95;;;2.30;99.90;;;;;;5110903;28;20077;-73
2021/01/11 03:30:57;;;;;;;87.18;37.40;;;2.40;99.90;;;;;;5110257;28;20044;-73
2021/01/11 03:33:22;;;;;;;90.13;40.42;;;2.30;99.90;;;;;;5110553;28;20095;-73
2021/01/11 03:35:48;;;;;;;85.70;38.03;;;2.30;99.90;;;;;;5108928;28;20023;-72
2021/01/11 03:38:13;;;;;;;89.63;41.72;;;2.30;99.90;;;;;;5110684;28;20457;-73
2021/01/11 03:40:39;;;;;;;79.45;37.20;;;2.20;99.90;;;;;;5110673;28;20031;-73
2021/01/11 03:43:04;;;;;;;77.60;33.88;;;2.20;99.90;;;;;;5102522;28;20069;-73
2021/01/11 03:45:30;;;;;;;83.93;39.67;;;2.20;99.90;;;;;;5096989;28;20484;-73
2021/01/11 03:47:55;;;;;;;81.80;37.85;;;2.10;99.90;;;;;;5096926;28;20028;-73
2021/01/11 03:50:21;;;;;;;84.20;38.28;;;2.10;99.90;;;;;;5096277;28;20024;-73
2021/01/11 03:52:46;;;;;;;78.90;36.67;;;2.20;99.90;;;;;;5096871;28;20024;-73
2021/01/11 03:55:12;;;;;;;79.80;36.25;;;2.20;99.90;;;;;;5096809;28;20373;-73
2021/01/11 03:57:37;;;;;;;85.55;39.53;;;2.10;99.90;;;;;;5096717;28;20063;-73
2021/01/11 04:00:06;;;;;;;79.95;34.53;;;2.10;99.90;;;;;;5096411;28;20103;-73
2021/01/11 04:02:33;;;;;;;77.35;35.22;;;2.10;99.90;;;;;;5094734;28;20028;-73
2021/01/11 04:04:59;;;;;;;88.88;39.53;;;2.10;99.90;;;;;;5094793;28;20031;-73
2021/01/11 04:07:24;;;;;;;94.40;40.17;;;2.10;99.90;;;;;;5094788;28;20032;-73
2021/01/11 04:09:50;;;;;;;96.50;37.78;;;2.10;99.90;;;;;;5096303;28;20024;-73
2021/01/11 04:12:15;;;;;;;90.55;39.78;;;2.10;99.90;;;;;;5096445;28;20461;-73
2021/01/11 04:14:41;;;;;;;95.55;41.20;;;2.10;99.90;;;;;;5096487;28;20059;-73
2021/01/11 04:17:06;;;;;;;80.18;34.83;;;2.10;99.90;;;;;;5096371;28;20059;-73
2021/01/11 04:19:32;;;;;;;93.90;40.88;;;2.10;99.90;;;;;;5096398;28;20099;-73
2021/01/11 04:21:58;;;;;;;96.95;40.58;;;2.00;99.90;;;;;;5096040;28;20062;-73
2021/01/11 04:24:23;;;;;;;94.40;41.92;;;2.10;99.90;;;;;;5095710;28;20610;-73
2021/01/11 04:26:49;;;;;;;85.93;38.85;;;2.00;99.90;;;;;;5096218;28;20145;-73
2021/01/11 04:29:14;;;;;;;86.07;39.22;;;2.10;99.90;;;;;;5096125;28;20103;-73
2021/01/11 04:31:40;;;;;;;97.43;41.10;;;2.10;99.90;;;;;;5095411;28;20040;-73
2021/01/11 04:34:05;;;;;;;90.07;39.83;;;2.10;99.90;;;;;;5096051;28;20385;-73
2021/01/11 04:36:34;;;;;;;87.00;39.03;;;2.10;99.90;;;;;;5095972;28;20032;-73
2021/01/11 04:38:59;;;;;;;82.22;36.72;;;2.00;99.90;;;;;;5095977;28;20020;-73
2021/01/11 04:41:26;;;;;;;82.20;35.75;;;2.10;99.90;;;;;;5095868;28;20121;-73
2021/01/11 04:43:53;;;;;;;78.00;35.58;;;2.10;99.90;;;;;;5095941;28;20028;-73
2021/01/11 04:46:19;;;;;;;86.32;37.65;;;2.00;99.90;;;;;;5095844;28;20055;-73
2021/01/11 04:48:44;;;;;;;93.68;38.33;;;2.00;99.90;;;;;;5095768;28;20028;-73
2021/01/11 04:51:10;;;;;;;77.82;35.35;;;2.00;99.90;;;;;;5095111;28;20040;-73
2021/01/11 04:53:40;;;;;;;81.70;37.67;;;2.00;99.90;;;;;;5076726;28;20034;-73
2021/01/11 04:56:09;;;;;;;80.30;34.05;;;1.90;99.90;;;;;;5094778;28;20016;-73
2021/01/11 04:58:54;;;;;;;72.22;32.95;;;2.00;99.90;;;;;;5094892;28;20377;-73
2021/01/11 05:01:22;;;;;;;77.07;35.35;;;2.00;99.90;;;;;;5093705;28;20035;-73
2021/01/11 05:03:50;;;;;;;79.70;36.83;;;1.90;99.90;;;;;;5095211;28;20535;-73
2021/01/11 05:06:18;;;;;;;81.75;34.00;;;2.00;99.90;;;;;;5095421;28;20032;-73
2021/01/11 05:08:43;;;;;;;79.13;34.53;;;1.90;99.90;;;;;;5095358;28;20370;-73
2021/01/11 05:11:09;;;;;;;72.00;32.38;;;1.90;99.90;;;;;;5093880;28;20027;-73
2021/01/11 05:13:35;;;;;;;74.45;34.92;;;1.80;99.90;;;;;;5095299;28;20345;-73
2021/01/11 05:16:11;;;;;;;80.15;36.42;;;1.80;99.90;;;;;;5094033;28;20020;-73
2021/01/11 05:18:36;;;;;;;68.53;32.47;;;1.80;99.90;;;;;;5095234;28;20099;-73
2021/01/11 05:21:02;;;;;;;69.13;30.55;;;1.80;99.90;;;;;;5095162;28;20060;-73
2021/01/11 05:23:37;;;;;;;65.55;31.83;;;1.80;99.90;;;;;;5094820;28;20065;-72
2021/01/11 05:26:14;;;;;;;68.70;33.08;;;1.80;99.90;;;;;;5095156;28;20111;-73
2021/01/11 05:28:41;;;;;;;57.40;26.42;;;1.80;99.90;;;;;;5094089;28;20089;-73
2021/01/11 05:31:07;;;;;;;68.35;32.53;;;1.80;99.90;;;;;;5094315;28;20040;-73
2021/01/11 05:33:33;;;;;;;65.32;31.25;;;1.80;99.90;;;;;;5095004;28;20031;-73
2021/01/11 05:36:08;;;;;;;71.15;32.72;;;1.80;99.90;;;;;;5094969;28;20020;-73
2021/01/11 05:38:37;;;;;;;62.17;29.45;;;1.80;99.90;;;;;;5094626;28;20039;-73
2021/01/11 05:41:19;;;;;;;61.08;29.67;;;1.80;99.90;;;;;;5094736;28;20530;-73
2021/01/11 05:43:48;;;;;;;47.85;22.42;;;1.80;99.90;;;;;;5094817;28;20028;-73
2021/01/11 05:46:28;;;;;;;64.32;29.17;;;1.80;99.90;;;;;;5094731;28;20024;-73
2021/01/11 05:49:10;;;;;;;64.60;29.98;;;1.70;99.90;;;;;;5094703;28;20028;-73
2021/01/11 05:51:37;;;;;;;66.68;32.22;;;1.70;99.90;;;;;;5094529;28;20027;-73
2021/01/11 05:54:04;;;;;;;62.97;29.20;;;1.70;99.90;;;;;;5094588;28;20012;-73
2021/01/11 05:56:50;;;;;;;62.80;29.40;;;1.70;99.90;;;;;;5093997;28;20023;-73
2021/01/11 05:59:16;;;;;;;64.32;29.42;;;1.70;99.90;;;;;;5094181;28;20553;-73
2021/01/11 06:01:41;;;;;;;62.15;31.02;;;1.60;99.90;;;;;;5094426;28;20067;-73
2021/01/11 06:04:07;;;;;;;68.22;31.55;;;1.60;99.90;;;;;;5093826;28;20059;-73
2021/01/11 06:06:33;;;;;;;62.60;28.70;;;1.60;99.90;;;;;;5094185;28;20053;-73
2021/01/11 06:08:58;;;;;;;69.95;29.75;;;1.60;99.90;;;;;;5094076;28;20020;-73
2021/01/11 06:11:26;;;;;;;57.08;27.92;;;1.60;99.90;;;;;;5094270;28;20032;-73
2021/01/11 06:13:56;;;;;;;67.68;30.52;;;1.50;99.90;;;;;;5094305;28;20074;-73
2021/01/11 06:16:22;;;;;;;68.75;34.30;;;1.50;99.90;;;;;;5094220;28;20031;-73
2021/01/11 06:18:50;;;;;;;66.00;30.60;;;1.50;99.90;;;;;;5093639;28;20016;-73
2021/01/11 06:21:16;;;;;;;68.93;30.77;;;1.60;99.90;;;;;;5094128;28;20024;-73
2021/01/11 06:23:42;;;;;;;74.50;34.60;;;1.50;99.90;;;;;;5093634;28;20024;-72
2021/01/11 06:26:28;;;;;;;64.55;31.63;;;1.50;99.90;;;;;;5094150;28;20039;-73
2021/01/11 06:28:55;;;;;;;80.53;35.20;;;1.50;99.90;;;;;;5092566;28;20028;-73
2021/01/11 06:31:29;;;;;;;73.22;36.15;;;1.50;99.90;;;;;;5093564;28;20043;-73
2021/01/11 06:33:56;;;;;;;66.00;31.25;;;1.60;99.90;;;;;;5094105;28;20070;-74
2021/01/11 06:36:25;;;;;;;62.45;28.50;;;1.50;99.90;;;;;;5092297;28;20103;-73
2021/01/11 06:38:52;;;;;;;72.10;33.53;;;1.50;99.90;;;;;;5089978;28;20444;-74
2021/01/11 06:41:20;;;;;;;76.45;35.50;;;1.50;99.90;;;;;;5093402;28;20069;-72
2021/01/11 06:44:00;;;;;;;82.47;37.88;;;1.40;99.90;;;;;;5093947;28;20036;-71
2021/01/11 06:49:30;;;;;;;68.05;30.85;;;1.40;99.90;;;;;;5111405;27;20435;-73
2021/01/11 06:52:12;;;;;;;71.40;31.70;;;1.40;99.90;;;;;;5108060;28;20443;-73
2021/01/11 06:54:41;;;;;;;68.15;31.98;;;1.40;99.90;;;;;;5109255;28;20522;-73
2021/01/11 06:57:09;;;;;;;74.57;32.90;;;1.50;99.90;;;;;;5111597;28;20035;-70
2021/01/11 06:59:38;;;;;;;77.85;34.50;;;1.40;99.90;;;;;;5109009;28;20039;-70
2021/01/11 07:02:24;;;;;;;72.20;33.08;;;1.40;99.90;;;;;;5111695;28;20476;-71
2021/01/11 07:04:51;;;;;;;70.53;29.70;;;1.40;99.90;;;;;;5110509;28;20031;-70
2021/01/11 07:07:20;;;;;;;68.60;29.88;;;1.40;99.90;;;;;;5111475;28;20099;-70
2021/01/11 07:12:28;;;;;;;63.15;27.52;;;1.40;99.90;;;;;;5091407;27;20752;-69
2021/01/11 07:14:59;;;;;;;61.85;27.60;;;1.40;99.90;;;;;;5090805;28;20036;-69
2021/01/11 07:17:48;;;;;;;63.38;28.60;;;1.40;99.90;;;;;;5090641;28;20016;-70
2021/01/11 07:20:15;;;;;;;65.82;28.40;;;1.40;99.90;;;;;;5089919;28;20029;-69
2021/01/11 07:22:42;;;;;;;64.63;28.55;;;1.40;99.90;;;;;;5090901;28;20461;-70
2021/01/11 07:25:23;;;;;;;65.38;29.73;;;1.40;99.90;;;;;;5088873;28;20028;-69
2021/01/11 07:27:54;;;;;;;62.65;27.25;;;1.40;99.90;;;;;;5090374;28;20492;-69
2021/01/11 07:30:20;;;;;;;72.72;30.05;;;1.40;99.90;;;;;;5090118;28;20473;-71
2021/01/11 07:32:45;;;;;;;63.53;28.63;;;1.30;99.90;;;;;;5090922;28;20108;-69
2021/01/11 07:35:11;;;;;;;62.80;30.00;;;1.40;99.90;;;;;;5090091;28;20474;-71
2021/01/11 07:37:37;;;;;;;73.15;30.20;;;1.40;99.90;;;;;;5079524;28;20040;-71
2021/01/11 07:40:06;;;;;;;65.05;26.52;;;1.40;99.90;;;;;;5088385;28;20020;-69
2021/01/11 07:42:31;;;;;;;65.05;29.13;;;1.40;99.90;;;;;;5090424;28;20020;-70
2021/01/11 07:45:12;;;;;;;61.47;29.65;;;1.40;99.90;;;;;;5088828;28;20031;-69
2021/01/11 07:47:38;;;;;;;59.50;26.92;;;1.50;99.90;;;;;;5090474;28;20381;-70
2021/01/11 07:50:05;;;;;;;61.40;28.50;;;1.50;99.90;;;;;;5089120;28;20029;-70
2021/01/11 07:52:31;;;;;;;59.97;28.70;;;1.50;99.90;;;;;;5089981;28;20373;-70
2021/01/11 07:54:59;;;;;;;66.18;28.25;;;1.50;99.90;;;;;;5088258;28;20130;-69
2021/01/11 07:57:28;;;;;;;60.95;27.55;;;1.50;99.90;;;;;;5090282;28;20044;-68
2021/01/11 08:02:39;;;;;;;64.43;29.10;;;1.50;99.90;;;;;;5109620;27;20408;-66
2021/01/11 08:05:18;;;;;;;62.40;29.45;;;1.60;99.90;;;;;;5110239;28;20477;-69
2021/01/11 08:07:48;;;;;;;61.17;28.23;;;1.60;99.90;;;;;;5109815;28;20114;-69
2021/01/11 08:10:15;;;;;;;60.75;26.75;;;1.60;99.90;;;;;;5110823;28;20023;-69
2021/01/11 08:12:41;;;;;;;65.22;28.23;;;1.70;99.90;;;;;;5110060;28;20055;-67
2021/01/11 08:15:07;;;;;;;61.95;27.90;;;1.70;99.90;;;;;;5110589;28;20070;-68
2021/01/11 08:17:33;;;;;;;62.30;29.10;;;1.60;99.90;;;;;;5110323;28;20024;-68
2021/01/11 08:19:59;;;;;;;63.85;28.75;;;1.70;99.90;;;;;;5109290;28;20126;-68
2021/01/11 08:22:27;;;;;;;59.70;27.98;;;1.60;99.90;;;;;;5109239;28;20031;-68
2021/01/11 08:24:55;;;;;;;66.45;28.25;;;1.70;99.90;;;;;;5110415;28;20492;-68
2021/01/11 08:27:32;;;;;;;68.32;28.67;;;1.70;99.90;;;;;;5110357;28;20031;-69
2021/01/11 08:30:03;;;;;;;66.97;29.20;;;1.70;99.90;;;;;;5110621;28;20019;-69
2021/01/11 08:32:31;;;;;;;67.38;29.90;;;1.70;99.90;;;;;;5088636;28;20020;-70
2021/01/11 08:34:57;;;;;;;59.78;26.98;;;1.70;99.90;;;;;;5088528;28;20024;-70
2021/01/11 08:40:10;;;;;;;64.03;30.13;;;1.80;99.90;;;;;;5110568;27;20359;-70
2021/01/11 08:42:37;;;;;;;63.33;29.98;;;1.80;99.90;;;;;;5110652;28;20028;-69
2021/01/11 08:45:38;;;;;;;59.78;29.73;;;1.80;99.90;;;;;;5110340;28;20095;-70
2021/01/11 08:48:09;;;;;;;68.60;29.42;;;1.80;99.90;;;;;;5110936;28;20028;-70
2021/01/11 08:50:41;;;;;;;62.97;28.35;;;1.80;99.90;;;;;;5109369;28;20103;-70
2021/01/11 08:53:36;;;;;;;64.90;29.58;;;1.80;99.90;;;;;;5110130;28;20294;-69
2021/01/11 08:56:04;;;;;;;70.68;30.35;;;1.80;99.90;;;;;;5110760;28;20073;-71
2021/01/11 08:58:31;;;;;;;58.78;25.42;;;1.80;99.90;;;;;;5110400;28;20024;-71
2021/01/11 09:01:18;;;;;;;62.63;29.38;;;1.80;99.90;;;;;;5111089;28;20023;-70
2021/01/11 09:03:49;;;;;;;61.28;29.40;;;1.90;99.90;;;;;;5110245;28;20073;-71
2021/01/11 09:06:37;;;;;;;53.83;26.75;;;1.90;99.90;;;;;;5109461;28;20530;-71
2021/01/11 09:09:05;;;;;;;57.97;29.05;;;1.90;99.90;;;;;;5110621;28;20024;-70
2021/01/11 09:11:31;;;;;;;55.03;27.92;;;2.00;99.90;;;;;;5109240;28;20024;-70
2021/01/11 09:14:13;;;;;;;59.03;28.13;;;2.00;99.90;;;;;;5110445;28;20024;-71
2021/01/11 09:16:41;;;;;;;60.72;27.58;;;2.00;99.90;;;;;;5109309;28;20413;-70
2021/01/11 09:19:09;;;;;;;53.42;27.45;;;2.10;99.90;;;;;;5108153;28;20062;-70
2021/01/11 09:21:35;;;;;;;54.75;27.52;;;2.10;99.90;;;;;;5110009;28;20024;-69
2021/01/11 09:24:01;;;;;;;54.17;27.27;;;2.20;99.90;;;;;;5109724;28;20043;-68
2021/01/11 09:26:31;;;;;;;49.72;23.15;;;2.30;99.90;;;;;;5109577;28;20024;-71
2021/01/11 09:28:57;;;;;;;50.63;26.42;;;2.30;99.90;;;;;;5109821;28;20035;-69
2021/01/11 09:31:22;;;;;;;49.58;24.63;;;2.30;99.90;;;;;;5108556;28;20024;-69
2021/01/11 09:33:48;;;;;;;48.20;25.27;;;2.30;99.90;;;;;;5109824;28;20035;-70
2021/01/11 09:36:13;;;;;;;48.47;25.73;;;2.30;99.90;;;;;;5108565;28;20028;-71
2021/01/11 09:38:39;;;;;;;47.97;24.70;;;2.30;99.90;;;;;;5108932;28;20054;-71
2021/01/11 09:41:04;;;;;;;49.53;25.17;;;2.40;99.90;;;;;;5109483;28;20038;-71
2021/01/11 09:43:30;;;;;;;56.60;26.05;;;2.40;99.90;;;;;;5109296;28;20028;-71
2021/01/11 09:45:55;;;;;;;46.83;23.63;;;2.40;99.90;;;;;;5109408;28;20052;-69
2021/01/11 09:48:21;;;;;;;46.17;21.63;;;2.40;99.90;;;;;;5107750;28;20028;-71
2021/01/11 09:50:47;;;;;;;44.97;22.92;;;2.40;99.90;;;;;;5099302;28;20028;-71
2021/01/11 09:53:12;;;;;;;48.88;24.67;;;2.30;99.90;;;;;;5094996;28;20126;-72
2021/01/11 09:55:38;;;;;;;48.55;23.45;;;2.30;99.90;;;;;;5094372;28;20028;-74
2021/01/11 09:58:04;;;;;;;43.92;23.20;;;2.40;99.90;;;;;;5094631;28;20474;-73
2021/01/11 10:00:33;;;;;;;46.65;23.48;;;2.40;99.90;;;;;;5095381;28;20028;-71
2021/01/11 10:02:59;;;;;;;52.40;23.88;;;2.40;99.90;;;;;;5095864;28;20020;-73
2021/01/11 10:05:24;;;;;;;48.45;23.67;;;2.40;99.90;;;;;;5095532;28;20028;-72
2021/01/11 10:07:51;;;;;;;45.88;22.35;;;2.40;99.90;;;;;;5095221;28;20081;-71
2021/01/11 10:10:16;;;;;;;48.53;22.73;;;2.50;99.90;;;;;;5095262;28;20034;-72
2021/01/11 10:12:42;;;;;;;44.85;22.65;;;2.40;99.90;;;;;;5096054;28;20517;-73
2021/01/11 10:15:08;;;;;;;46.90;23.50;;;2.50;99.90;;;;;;5095158;28;20028;-72
2021/01/11 10:17:34;;;;;;;44.17;22.58;;;2.40;99.90;;;;;;5094010;28;20385;-72
2021/01/11 10:20:00;;;;;;;44.08;22.52;;;2.40;99.90;;;;;;5094992;28;20027;-70
2021/01/11 10:22:26;;;;;;;50.22;23.10;;;2.50;99.90;;;;;;5094035;28;20020;-70
2021/01/11 10:24:51;;;;;;;46.85;24.05;;;2.50;99.90;;;;;;5095298;28;20030;-70
2021/01/11 10:27:18;;;;;;;47.03;23.05;;;2.50;99.90;;;;;;5095395;28;20032;-70
2021/01/11 10:29:43;;;;;;;49.40;23.38;;;2.50;99.90;;;;;;5094925;28;20058;-72
2021/01/11 10:32:09;;;;;;;47.67;22.70;;;2.50;99.90;;;;;;5094945;28;20053;-72
2021/01/11 10:34:35;;;;;;;46.15;22.08;;;2.50;99.90;;;;;;5094645;28;20081;-74
2021/01/11 10:37:01;;;;;;;46.03;22.77;;;2.50;99.90;;;;;;5076675;28;20028;-73
2021/01/11 10:39:27;;;;;;;51.05;23.75;;;2.60;99.90;;;;;;5094184;28;20434;-73
2021/01/11 10:41:55;;;;;;;45.25;23.15;;;2.50;99.90;;;;;;5095182;28;20020;-72
2021/01/11 10:44:22;;;;;;;45.78;21.73;;;2.60;99.90;;;;;;5092867;28;20389;-72
2021/01/11 10:46:51;;;;;;;44.75;21.67;;;2.60;99.90;;;;;;5095060;28;20047;-73
2021/01/11 10:49:16;;;;;;;43.88;21.08;;;2.60;99.90;;;;;;5093875;28;20544;-75
2021/01/11 10:51:42;;;;;;;46.83;21.17;;;2.60;99.90;;;;;;5094993;28;20081;-74
2021/01/11 10:54:08;;;;;;;43.22;21.48;;;2.60;99.90;;;;;;5094596;28;20412;-73
2021/01/11 10:56:33;;;;;;;43.85;20.38;;;2.60;99.90;;;;;;5094556;28;20027;-72
2021/01/11 10:58:59;;;;;;;49.40;21.83;;;2.70;99.90;;;;;;5093182;28;20455;-75
2021/01/11 11:01:24;;;;;;;39.63;19.67;;;2.60;99.90;;;;;;5072487;28;20031;-74
2021/01/11 11:03:50;;;;;;;39.67;18.52;;;2.60;99.90;;;;;;5093515;28;20063;-75
2021/01/11 11:06:21;;;;;;;38.47;20.17;;;2.60;99.90;;;;;;5092743;28;20032;-74
2021/01/11 11:08:46;;;;;;;39.90;19.88;;;2.50;99.90;;;;;;5094714;28;20078;-72
2021/01/11 11:11:12;;;;;;;40.63;20.30;;;2.50;99.90;;;;;;5093374;28;20028;-74
2021/01/11 11:13:39;;;;;;;37.63;19.05;;;2.50;99.90;;;;;;5094656;28;20055;-75
2021/01/11 11:16:06;;;;;;;30.67;13.75;;;2.50;99.90;;;;;;5093557;28;20545;-75
2021/01/11 11:18:34;;;;;;;39.22;17.20;;;2.50;99.90;;;;;;5092850;28;20049;-71
2021/01/11 11:21:00;;;;;;;36.28;19.33;;;2.50;99.90;;;;;;5093877;28;20461;-70
2021/01/11 11:23:25;;;;;;;36.67;19.27;;;2.40;99.90;;;;;;5094460;28;20028;-71
2021/01/11 11:25:51;;;;;;;38.85;19.38;;;2.50;99.90;;;;;;5093882;28;20099;-71
2021/01/11 11:28:16;;;;;;;41.17;19.02;;;2.50;99.90;;;;;;5093733;28;20145;-70
2021/01/11 11:30:43;;;;;;;36.55;18.63;;;2.40;99.90;;;;;;5094385;28;20055;-71
2021/01/11 11:33:10;;;;;;;37.28;18.15;;;2.40;99.90;;;;;;5093696;28;20031;-72
2021/01/11 11:35:35;;;;;;;34.42;17.23;;;2.50;99.90;;;;;;5092661;28;20035;-71
2021/01/11 11:38:01;;;;;;;40.75;18.23;;;2.40;99.90;;;;;;5092449;28;20093;-71
2021/01/11 11:40:26;;;;;;;36.33;17.98;;;2.40;99.90;;;;;;5093699;28;20038;-73
2021/01/11 11:42:52;;;;;;;32.10;17.05;;;2.40;99.90;;;;;;5092475;28;20069;-72
2021/01/11 11:45:19;;;;;;;39.50;17.85;;;2.40;99.90;;;;;;5093571;28;20103;-73
2021/01/11 11:47:45;;;;;;;34.40;15.55;;;2.40;99.90;;;;;;5093399;28;20055;-74
2021/01/11 11:50:14;;;;;;;41.60;19.42;;;2.40;99.90;;;;;;5093666;28;20016;-74
2021/01/11 11:52:40;;;;;;;35.67;18.35;;;2.40;99.90;;;;;;5092822;28;20028;-73
2021/01/11 11:55:09;;;;;;;38.45;18.05;;;2.50;99.90;;;;;;5093450;28;20077;-73
2021/01/11 11:57:35;;;;;;;33.50;17.15;;;2.50;99.90;;;;;;5093057;28;20073;-73
2021/01/11 12:00:00;;;;;;;36.28;18.13;;;2.40;99.90;;;;;;5092199;28;20020;-73
2021/01/11 12:02:26;;;;;;;37.10;18.88;;;2.40;99.90;;;;;;5093469;28;20028;-72
2021/01/11 12:04:51;;;;;;;32.63;16.35;;;2.50;99.90;;;;;;5093347;28;20487;-72
2021/01/11 12:07:18;;;;;;;36.45;18.27;;;2.50;99.90;;;;;;5091535;28;20073;-72
2021/01/11 12:09:44;;;;;;;35.80;17.83;;;2.40;99.90;;;;;;5093501;28;20103;-72
2021/01/11 12:12:13;;;;;;;34.72;16.27;;;2.50;99.90;;;;;;5093297;28;20150;-72
2021/01/11 12:14:39;;;;;;;32.00;16.42;;;2.60;99.90;;;;;;5091921;28;20086;-72
2021/01/11 12:17:05;;;;;;;33.47;17.73;;;2.60;99.90;;;;;;5093218;28;20045;-72
2021/01/11 12:19:31;;;;;;;35.28;17.20;;;2.60;99.90;;;;;;5091915;28;20026;-72
2021/01/11 12:21:56;;;;;;;35.65;17.30;;;2.60;99.90;;;;;;5091671;28;20024;-72
2021/01/11 12:24:22;;;;;;;32.47;16.90;;;2.60;99.90;;;;;;5087058;28;20393;-72
2021/01/11 12:26:49;;;;;;;36.45;17.70;;;2.70;99.90;;;;;;5092801;28;20060;-72
2021/01/11 12:29:16;;;;;;;36.00;17.20;;;2.70;99.90;;;;;;5093062;28;20086;-72
2021/01/11 12:31:42;;;;;;;30.75;16.23;;;2.70;99.90;;;;;;5093130;28;20095;-72
2021/01/11 12:34:09;;;;;;;32.78;16.42;;;2.70;99.90;;;;;;5092071;28;20063;-72
2021/01/11 12:36:37;;;;;;;32.53;17.75;;;2.70;99.90;;;;;;5091649;28;20393;-72
2021/01/11 12:39:06;;;;;;;29.92;16.02;;;2.80;99.90;;;;;;5090666;28;20044;-72
2021/01/11 12:41:31;;;;;;;30.52;16.08;;;2.90;99.90;;;;;;5093067;28;20443;-71
2021/01/11 12:43:57;;;;;;;28.63;15.65;;;2.90;99.90;;;;;;5086315;28;20048;-72
2021/01/11 12:46:24;;;;;;;28.02;15.73;;;2.90;99.90;;;;;;5088826;28;20358;-71
2021/01/11 12:48:50;;;;;;;29.42;16.08;;;2.90;99.90;;;;;;5092044;28;20498;-71
2021/01/11 12:51:19;;;;;;;28.83;16.77;;;3.00;99.90;;;;;;5091755;28;20028;-69
2021/01/11 12:53:46;;;;;;;30.90;16.35;;;3.00;99.90;;;;;;5093044;28;20020;-70
2021/01/11 12:56:17;;;;;;;34.05;16.08;;;3.00;99.90;;;;;;5091037;28;20035;-70